createdAt,value
2022-11-20T00:01:47.005Z,100774.31
2022-11-20T00:06:49.794Z,100778.72
2022-11-20T00:11:53.864Z,100773.53
2022-11-20T00:16:56.628Z,100775.38
2022-11-20T00:21:59.396Z,100776.91
2022-11-20T00:27:03.455Z,100774.19
2022-11-20T00:32:06.484Z,100784.56
2022-11-20T00:37:09.199Z,100774.53
2022-11-20T00:42:13.264Z,100770.66
2022-11-20T00:47:16.116Z,100775.16
2022-11-20T00:52:18.888Z,100771.66
2022-11-20T00:57:22.963Z,100778.00
2022-11-20T01:02:25.692Z,100779.47
2022-11-20T01:07:28.437Z,100771.19
2022-11-20T01:12:32.529Z,100764.44
2022-11-20T01:17:35.305Z,100765.09
2022-11-20T01:22:38.038Z,100764.03
2022-11-20T01:27:42.096Z,100765.59
2022-11-20T01:32:45.058Z,100752.63
2022-11-20T01:37:47.792Z,100756.25
2022-11-20T01:43:20.370Z,100752.63
2022-11-20T01:48:25.894Z,100753.41
2022-11-20T01:53:34.179Z,100742.75
2022-11-20T01:58:44.403Z,100739.09
2022-11-20T02:03:49.541Z,100740.94
2022-11-20T02:08:54.020Z,100737.44
2022-11-20T02:13:58.094Z,100730.56
2022-11-20T02:19:02.716Z,100731.47
2022-11-20T02:24:10.206Z,100726.28
2022-11-20T02:29:12.959Z,100726.28
2022-11-20T02:34:15.688Z,100720.19
2022-11-20T02:39:22.639Z,100722.78
2022-11-20T02:44:25.659Z,100712.41
2022-11-20T02:49:28.372Z,100715.25
2022-11-20T02:54:32.461Z,100715.13
2022-11-20T02:59:35.158Z,100714.22
2022-11-20T03:04:37.887Z,100712.53
2022-11-20T03:09:41.979Z,100716.69
2022-11-20T03:14:47.763Z,100717.47
2022-11-20T03:19:53.048Z,100707.97
2022-11-20T03:24:57.099Z,100705.69
2022-11-20T03:29:59.805Z,100705.00
2022-11-20T03:35:02.879Z,100699.44
2022-11-20T03:40:08.866Z,100699.56
2022-11-20T03:45:11.848Z,100696.59
2022-11-20T03:50:15.808Z,100692.03
2022-11-20T03:55:19.932Z,100684.13
2022-11-20T04:00:22.739Z,100684.88
2022-11-20T04:05:25.503Z,100677.91
2022-11-20T04:10:29.547Z,100683.22
2022-11-20T04:15:38.136Z,100675.97
2022-11-20T04:20:41.127Z,100680.13
2022-11-20T04:25:45.284Z,100678.28
2022-11-20T04:30:48.435Z,100670.25
2022-11-20T04:35:51.152Z,100663.13
2022-11-20T04:40:58.467Z,100667.28
2022-11-20T04:46:02.280Z,100665.59
2022-11-20T04:51:05.924Z,100655.22
2022-11-20T04:56:11.956Z,100657.66
2022-11-20T05:01:17.080Z,100659.06
2022-11-20T05:06:22.920Z,100664.75
2022-11-20T05:11:29.971Z,100649.38
2022-11-20T05:16:32.859Z,100649.50
2022-11-20T05:21:35.594Z,100656.09
2022-11-20T05:26:39.944Z,100657.09
2022-11-20T05:31:43.015Z,100648.06
2022-11-20T05:36:45.765Z,100631.72
2022-11-20T05:42:10.619Z,100637.81
2022-11-20T05:47:13.339Z,100634.44
2022-11-20T05:52:16.174Z,100637.31
2022-11-20T05:57:20.223Z,100625.09
2022-11-20T06:02:22.988Z,100627.44
2022-11-20T06:07:26.227Z,100613.72
2022-11-20T06:12:30.527Z,100619.03
2022-11-20T06:17:33.291Z,100620.97
2022-11-20T06:22:36.010Z,100619.53
2022-11-20T06:27:40.103Z,100617.59
2022-11-20T06:32:42.975Z,100622.91
2022-11-20T06:37:45.701Z,100617.47
2022-11-20T06:42:49.821Z,100614.22
2022-11-20T06:47:52.770Z,100603.22
2022-11-20T06:52:55.537Z,100607.22
2022-11-20T06:57:59.846Z,100608.53
2022-11-20T07:03:05.187Z,100603.22
2022-11-20T07:08:08.383Z,100606.56
2022-11-20T07:13:12.803Z,100605.00
2022-11-20T07:18:15.523Z,100607.22
2022-11-20T07:23:18.249Z,100599.84
2022-11-20T07:28:22.434Z,100601.13
2022-11-20T07:33:25.574Z,100607.63
2022-11-20T07:38:28.324Z,100604.53
2022-11-20T07:43:35.921Z,100600.75
2022-11-20T07:48:42.816Z,100604.25
2022-11-20T07:53:45.528Z,100599.84
2022-11-20T07:58:49.609Z,100598.91
2022-11-20T08:03:52.485Z,100602.44
2022-11-20T08:08:55.229Z,100601.78
2022-11-20T08:14:14.651Z,100595.28
2022-11-20T08:19:20.153Z,100587.09
2022-11-20T08:24:23.269Z,100591.41
2022-11-20T08:29:28.114Z,100584.38
2022-11-20T08:34:30.868Z,100582.03
2022-11-20T08:39:33.596Z,100592.56
2022-11-20T08:44:37.655Z,100588.66
2022-11-20T08:49:40.382Z,100584.88
2022-11-20T08:54:43.090Z,100592.13
2022-11-20T09:05:10.106Z,100587.03
2022-11-20T09:10:28.399Z,100591.47
2022-11-20T09:15:32.556Z,100587.03
2022-11-20T09:20:35.309Z,100582.25
2022-11-20T09:25:38.100Z,100582.38
2022-11-20T09:30:42.274Z,100588.47
2022-11-20T09:35:45.610Z,100574.06
2022-11-20T09:40:56.337Z,100574.84
2022-11-20T09:46:10.641Z,100560.03
2022-11-20T09:51:25.610Z,100567.94
2022-11-20T09:56:30.239Z,100559.13
2022-11-20T10:01:39.296Z,100570.41
2022-11-20T10:06:59.506Z,100571.59
2022-11-20T10:12:19.311Z,100574.97
2022-11-20T10:17:36.042Z,100574.84
2022-11-20T10:22:55.964Z,100571.19
2022-11-20T10:28:17.869Z,100572.47
2022-11-20T10:33:24.889Z,100565.19
2022-11-20T10:38:35.977Z,100562.06
2022-11-20T10:43:38.726Z,100557.34
2022-11-20T10:48:46.105Z,100554.09
2022-11-20T10:53:58.701Z,100553.69
2022-11-20T10:59:44.137Z,100554.84
2022-11-20T11:04:51.364Z,100562.78
2022-11-20T11:09:55.870Z,100553.81
2022-11-20T11:14:59.922Z,100559.00
2022-11-20T11:20:07.723Z,100551.44
2022-11-20T11:25:20.626Z,100548.44
2022-11-20T11:30:25.241Z,100550.75
2022-11-20T11:35:30.570Z,100540.47
2022-11-20T11:40:34.713Z,100538.81
2022-11-20T11:45:38.449Z,100542.94
2022-11-20T11:50:50.997Z,100541.81
2022-11-20T11:56:00.132Z,100549.72
2022-11-20T12:01:09.934Z,100548.22
2022-11-20T12:06:16.899Z,100547.47
2022-11-20T12:11:26.240Z,100535.75
2022-11-20T12:16:29.321Z,100532.84
2022-11-20T12:21:46.253Z,100534.25
2022-11-20T12:27:03.912Z,100533.75
2022-11-20T12:32:33.553Z,100542.78
2022-11-20T12:37:49.919Z,100526.03
2022-11-20T12:43:21.111Z,100527.19
2022-11-20T12:48:46.405Z,100515.44
2022-11-20T12:54:08.326Z,100517.84
2022-11-20T12:59:30.037Z,100511.09
2022-11-20T13:04:46.771Z,100510.16
2022-11-20T13:09:52.569Z,100514.91
2022-11-20T13:15:04.832Z,100512.19
2022-11-20T13:20:14.281Z,100509.56
2022-11-20T13:25:29.538Z,100501.34
2022-11-20T13:30:33.544Z,100499.53
2022-11-20T13:35:38.340Z,100496.25
2022-11-20T13:40:53.658Z,100498.84
2022-11-20T13:45:58.633Z,100495.81
2022-11-20T13:51:11.820Z,100501.53
2022-11-20T13:56:26.095Z,100496.34
2022-11-20T14:01:33.521Z,100494.41
2022-11-20T14:06:42.656Z,100482.88
2022-11-20T14:11:49.786Z,100464.50
2022-11-20T14:16:53.302Z,100464.28
2022-11-20T14:22:08.548Z,100461.28
2022-11-20T14:27:18.477Z,100462.53
2022-11-20T14:32:30.612Z,100465.03
2022-11-20T14:37:38.325Z,100457.75
2022-11-20T14:42:46.122Z,100463.69
2022-11-20T14:47:50.119Z,100448.63
2022-11-20T14:52:54.292Z,100458.47
2022-11-20T14:58:00.157Z,100458.16
2022-11-20T15:03:03.333Z,100465.31
2022-11-20T15:08:08.824Z,100462.31
2022-11-20T15:13:18.136Z,100465.03
2022-11-20T15:18:23.425Z,100467.50
2022-11-20T15:23:28.325Z,100473.34
2022-11-20T15:28:35.400Z,100466.75
2022-11-20T15:33:38.152Z,100454.00
2022-11-20T15:38:40.944Z,100458.56
2022-11-20T15:43:45.060Z,100452.69
2022-11-20T15:48:52.819Z,100448.53
2022-11-20T15:53:57.246Z,100437.34
2022-11-20T16:04:14.027Z,100425.19
2022-11-20T16:09:16.751Z,100427.44
2022-11-20T16:14:36.943Z,100420.84
2022-11-20T16:19:41.044Z,100419.56
2022-11-20T16:24:43.800Z,100411.94
2022-11-20T16:29:46.565Z,100411.97
2022-11-20T16:34:51.862Z,100407.72
2022-11-20T16:39:54.808Z,100426.63
2022-11-20T16:44:57.612Z,100433.91
2022-11-20T16:50:01.809Z,100424.09
2022-11-20T16:55:05.250Z,100420.59
2022-11-20T17:00:09.269Z,100427.84
2022-11-20T17:05:13.343Z,100426.56
2022-11-20T17:10:16.282Z,100418.28
2022-11-20T17:15:19.281Z,100411.66
2022-11-20T17:20:23.513Z,100402.31
2022-11-20T17:25:26.248Z,100394.03
2022-11-20T17:30:28.970Z,100401.16
2022-11-20T17:35:33.162Z,100396.97
2022-11-20T17:40:35.916Z,100392.31
2022-11-20T17:45:38.854Z,100381.56
2022-11-20T17:50:43.017Z,100382.69
2022-11-20T17:56:03.283Z,100386.84
2022-11-20T18:01:06.808Z,100398.56
2022-11-20T18:06:12.599Z,100405.16
2022-11-20T18:11:16.995Z,100396.09
2022-11-20T18:16:19.743Z,100400.63
2022-11-20T18:21:24.556Z,100393.38
2022-11-20T18:26:27.659Z,100396.09
2022-11-20T18:31:30.421Z,100398.31
2022-11-20T18:36:34.631Z,100396.75
2022-11-20T18:41:55.197Z,100397.66
2022-11-20T18:46:58.066Z,100393.75
2022-11-20T18:52:02.133Z,100400.63
2022-11-20T18:57:05.269Z,100397.41
2022-11-20T19:02:10.806Z,100397.09
2022-11-20T19:07:15.829Z,100392.31
2022-11-20T19:12:19.110Z,100386.88
2022-11-20T19:17:21.861Z,100386.88
2022-11-20T19:22:26.004Z,100387.91
2022-11-20T19:27:28.961Z,100384.97
2022-11-20T19:32:32.484Z,100377.72
2022-11-20T19:37:37.058Z,100383.66
2022-11-20T19:42:40.270Z,100373.56
2022-11-20T19:48:06.638Z,100384.75
2022-11-20T19:53:07.464Z,100373.88
2022-11-20T19:58:10.297Z,100373.22
2022-11-20T20:03:13.154Z,100369.09
2022-11-20T20:08:17.309Z,100362.50
2022-11-20T20:13:20.075Z,100351.78
2022-11-20T20:18:22.796Z,100352.72
2022-11-20T20:23:26.859Z,100360.31
2022-11-20T20:28:30.027Z,100358.66
2022-11-20T20:33:32.843Z,100344.94
2022-11-20T20:38:37.498Z,100338.06
2022-11-20T20:43:54.129Z,100334.72
2022-11-20T20:48:56.898Z,100322.69
2022-11-20T20:54:00.990Z,100319.06
2022-11-20T20:59:04.371Z,100322.16
2022-11-20T21:04:07.093Z,100325.50
2022-11-20T21:09:11.376Z,100320.97
2022-11-20T21:14:14.126Z,100308.81
2022-11-20T21:19:16.913Z,100305.31
2022-11-20T21:24:21.289Z,100302.22
2022-11-20T21:29:25.520Z,100300.41
2022-11-20T21:34:28.896Z,100296.78
2022-11-20T21:39:32.965Z,100292.38
2022-11-20T21:44:35.664Z,100292.38
2022-11-20T21:49:39.834Z,100285.38
2022-11-20T21:54:43.907Z,100272.06
2022-11-20T21:59:46.642Z,100274.25
2022-11-20T22:04:50.052Z,100272.94
2022-11-20T22:09:54.103Z,100264.66
2022-11-20T22:14:56.817Z,100262.09
2022-11-20T22:19:59.548Z,100253.56
2022-11-20T22:25:03.665Z,100240.50
2022-11-20T22:30:07.468Z,100249.91
2022-11-20T22:35:10.590Z,100234.53
2022-11-20T22:40:15.004Z,100244.84
2022-11-20T22:45:18.049Z,100241.78
2022-11-20T22:50:20.787Z,100240.75
2022-11-20T22:55:24.884Z,100245.44
2022-11-20T23:00:27.580Z,100249.16
2022-11-20T23:05:33.000Z,100248.53
2022-11-20T23:10:37.063Z,100234.28
2022-11-20T23:15:39.785Z,100225.00
2022-11-20T23:20:42.508Z,100212.44
2022-11-20T23:25:46.655Z,100217.13
2022-11-20T23:30:49.387Z,100209.72
2022-11-20T23:35:52.280Z,100205.63
2022-11-20T23:40:56.364Z,100202.47
2022-11-20T23:46:00.673Z,100201.97
2022-11-20T23:51:04.133Z,100200.44
2022-11-20T23:56:09.127Z,100182.31
